WXM80 ListenWXM80 Stop

You find our weather info also at:

UK Metoffice

WeatherCloud

Weather Underground

Northeastern Weather Network

AWEKAS

Citizen Weather Observer Program (CWOP)

HAMweather, WeatherForYou, PWS Weather


Weather Underground History page Text

Daily Summary for February 14, 2018 Units:  English    Metric   Both
« Previous Day
Next Day »
Daily Weekly Monthly Yearly Custom
  High: Low: Average:
Temperature: 50.9 °F 31.3 °F 41 °F
Dew Point: 42.2 °F 26.2 °F 34.9 °F
Humidity: 94 % 61 % 80 %
Wind Speed: 7.4 mph 0.0 mph 1.9 mph
Wind Gust: 12.7 mph - -
Wind:- - SW
Pressure: 30.32 in 29.79 in -
Precipitation: 0.00 in    
Historical Graphs
 
 
Tabular Data for February 14, 2018
Time Temperature Dew Point Pressure Wind Wind Speed Wind Gust Humidity Rainfall Rate (Hourly)
00:03 31.3 °F 26.4 °F 30.31 in Calm     82 % 0.00 in
00:08 31.4 °F 26.5 °F 30.31 in Calm     82 % 0.00 in
00:13 31.4 °F 26.2 °F 30.31 in Calm     81 % 0.00 in
00:18 31.4 °F 26.2 °F 30.31 in Calm   1.2 mph 81 % 0.00 in
00:23 31.4 °F 26.5 °F 30.31 in SSE 0.5 mph 1.2 mph 82 % 0.00 in
00:28 31.5 °F 26.6 °F 30.31 in Calm   1.2 mph 82 % 0.00 in
00:33 31.5 °F 26.6 °F 30.32 in Calm     82 % 0.00 in
00:38 31.6 °F 26.7 °F 30.32 in Calm   1.2 mph 82 % 0.00 in
00:43 31.7 °F 26.8 °F 30.31 in Calm     82 % 0.00 in
00:48 31.7 °F 26.8 °F 30.30 in Calm     82 % 0.00 in
00:53 31.8 °F 26.9 °F 30.30 in Calm     82 % 0.00 in
00:58 31.8 °F 26.9 °F 30.29 in Calm     82 % 0.00 in
01:03 31.8 °F 26.9 °F 30.29 in Calm     82 % 0.00 in
01:08 31.9 °F 27.0 °F 30.29 in Calm     82 % 0.00 in
01:18 31.9 °F 27.0 °F 30.29 in Calm     82 % 0.00 in
01:23 31.9 °F 27.0 °F 30.28 in Calm     82 % 0.00 in
01:28 32.0 °F 27.1 °F 30.28 in Calm     82 % 0.00 in
01:34 32.0 °F 27.1 °F 30.28 in Calm     82 % 0.00 in
01:39 32.0 °F 27.1 °F 30.27 in Calm     82 % 0.00 in
01:44 32.0 °F 27.1 °F 30.27 in Calm     82 % 0.00 in
01:49 32.0 °F 27.1 °F 30.26 in Calm     82 % 0.00 in
01:54 32.0 °F 27.1 °F 30.26 in Calm     82 % 0.00 in
01:59 32.1 °F 27.2 °F 30.25 in Calm     82 % 0.00 in
02:04 32.1 °F 27.2 °F 30.25 in Calm     82 % 0.00 in
02:09 32.1 °F 27.2 °F 30.25 in Calm   1.2 mph 82 % 0.00 in
02:14 32.1 °F 27.2 °F 30.25 in Calm     82 % 0.00 in
02:19 32.1 °F 27.5 °F 30.25 in Calm   2.3 mph 83 % 0.00 in
02:24 32.1 °F 27.5 °F 30.25 in WSW 1.0 mph 3.5 mph 83 % 0.00 in
02:29 32.1 °F 27.5 °F 30.25 in WSW 0.9 mph 3.5 mph 83 % 0.00 in
02:34 32.2 °F 27.6 °F 30.25 in Calm     83 % 0.00 in
02:39 32.2 °F 27.6 °F 30.25 in West 1.4 mph 3.5 mph 83 % 0.00 in
02:44 32.2 °F 27.9 °F 30.25 in West 1.2 mph 3.5 mph 84 % 0.00 in
02:50 32.3 °F 28.0 °F 30.24 in Calm     84 % 0.00 in
02:55 32.3 °F 28.0 °F 30.23 in West 1.5 mph 3.5 mph 84 % 0.00 in
03:00 32.3 °F 28.0 °F 30.23 in Calm     84 % 0.00 in
03:05 32.3 °F 28.0 °F 30.23 in West 1.2 mph 2.3 mph 84 % 0.00 in
03:10 32.3 °F 28.0 °F 30.23 in West 0.8 mph 2.3 mph 84 % 0.00 in
03:15 32.3 °F 28.0 °F 30.22 in Calm   1.2 mph 84 % 0.00 in
03:20 32.3 °F 28.0 °F 30.22 in West 0.6 mph 2.3 mph 84 % 0.00 in
03:25 32.3 °F 28.0 °F 30.22 in Calm     84 % 0.00 in
03:30 32.3 °F 28.0 °F 30.21 in West 0.1 mph 1.2 mph 84 % 0.00 in
03:35 32.3 °F 28.0 °F 30.20 in West 0.2 mph 1.2 mph 84 % 0.00 in
03:40 32.3 °F 28.0 °F 30.18 in Calm     84 % 0.00 in
03:45 32.3 °F 28.0 °F 30.18 in Calm     84 % 0.00 in
03:50 32.3 °F 28.0 °F 30.17 in Calm     84 % 0.00 in
03:55 32.3 °F 28.0 °F 30.17 in Calm     84 % 0.00 in
04:00 32.3 °F 28.3 °F 30.17 in Calm     85 % 0.00 in
04:05 32.2 °F 28.2 °F 30.17 in Calm     85 % 0.00 in
04:10 32.2 °F 28.2 °F 30.17 in Calm     85 % 0.00 in
04:15 32.2 °F 28.2 °F 30.17 in Calm     85 % 0.00 in
04:20 32.2 °F 28.2 °F 30.17 in Calm     85 % 0.00 in
04:26 32.2 °F 28.2 °F 30.18 in Calm     85 % 0.00 in
04:31 32.2 °F 28.5 °F 30.18 in Calm   2.0 mph 86 % 0.00 in
04:36 32.3 °F 28.6 °F 30.18 in Calm     86 % 0.00 in
04:41 32.3 °F 28.6 °F 30.17 in Calm     86 % 0.00 in
04:46 32.3 °F 28.6 °F 30.17 in Calm     86 % 0.00 in
04:51 32.3 °F 28.6 °F 30.17 in Calm     86 % 0.00 in
04:56 32.3 °F 28.6 °F 30.18 in Calm     86 % 0.00 in
05:01 32.4 °F 29.0 °F 30.18 in Calm     87 % 0.00 in
05:06 32.4 °F 29.0 °F 30.18 in Calm     87 % 0.00 in
05:11 32.5 °F 29.1 °F 30.16 in Calm     87 % 0.00 in
05:16 32.5 °F 29.3 °F 30.17 in Calm     88 % 0.00 in
05:21 32.6 °F 29.4 °F 30.17 in Calm   1.2 mph 88 % 0.00 in
05:26 32.6 °F 29.4 °F 30.17 in Calm     88 % 0.00 in
05:31 32.7 °F 29.8 °F 30.17 in Calm     89 % 0.00 in
05:36 32.8 °F 29.9 °F 30.16 in Calm   1.2 mph 89 % 0.00 in
05:41 32.8 °F 29.9 °F 30.16 in Calm     89 % 0.00 in
05:46 32.8 °F 29.9 °F 30.16 in Calm     89 % 0.00 in
05:51 32.8 °F 29.9 °F 30.16 in Calm     89 % 0.00 in
05:56 32.9 °F 30.0 °F 30.15 in Calm     89 % 0.00 in
06:01 32.9 °F 30.3 °F 30.15 in Calm     90 % 0.00 in
06:06 32.9 °F 30.3 °F 30.15 in Calm     90 % 0.00 in
06:11 32.9 °F 30.3 °F 30.14 in Calm     90 % 0.00 in
06:16 32.9 °F 30.3 °F 30.14 in Calm     90 % 0.00 in
06:21 32.9 °F 30.3 °F 30.14 in Calm     90 % 0.00 in
06:26 32.9 °F 30.3 °F 30.14 in Calm     90 % 0.00 in
06:32 32.9 °F 30.3 °F 30.14 in Calm     90 % 0.00 in
06:37 32.9 °F 30.3 °F 30.15 in Calm     90 % 0.00 in
06:42 32.9 °F 30.3 °F 30.14 in Calm     90 % 0.00 in
06:47 33.0 °F 30.7 °F 30.13 in Calm   2.3 mph 91 % 0.00 in
06:52 33.1 °F 30.8 °F 30.13 in Calm     91 % 0.00 in
06:57 33.1 °F 30.8 °F 30.13 in Calm     91 % 0.00 in
07:02 33.1 °F 30.8 °F 30.13 in Calm     91 % 0.00 in
07:07 33.1 °F 30.8 °F 30.13 in Calm     91 % 0.00 in
07:12 33.1 °F 30.8 °F 30.13 in Calm     91 % 0.00 in
07:17 33.2 °F 30.9 °F 30.14 in Calm     91 % 0.00 in
07:22 33.2 °F 30.9 °F 30.13 in Calm     91 % 0.00 in
07:27 33.4 °F 31.3 °F 30.13 in Calm     92 % 0.00 in
07:32 33.4 °F 31.3 °F 30.14 in Calm     92 % 0.00 in
07:37 33.4 °F 31.3 °F 30.13 in Calm     92 % 0.00 in
07:42 33.5 °F 31.4 °F 30.13 in Calm     92 % 0.00 in
07:47 33.6 °F 31.5 °F 30.14 in Calm     92 % 0.00 in
07:52 33.7 °F 31.6 °F 30.13 in Calm   1.2 mph 92 % 0.00 in
07:57 33.8 °F 32.0 °F 30.13 in Calm   1.2 mph 93 % 0.00 in
08:02 33.9 °F 32.1 °F 30.12 in Calm     93 % 0.00 in
08:07 34.1 °F 32.3 °F 30.13 in Calm     93 % 0.00 in
08:12 34.3 °F 32.5 °F 30.12 in Calm     93 % 0.00 in
08:18 34.4 °F 32.6 °F 30.13 in Calm     93 % 0.00 in
08:23 34.6 °F 32.8 °F 30.12 in Calm     93 % 0.00 in
08:28 34.9 °F 33.3 °F 30.12 in West 0.8 mph 1.0 mph 94 % 0.00 in
08:33 35.0 °F 33.4 °F 30.12 in Calm     94 % 0.00 in
08:38 35.2 °F 33.6 °F 30.12 in SW 1.2 mph 2.3 mph 94 % 0.00 in
08:43 35.4 °F 33.8 °F 30.12 in SSW 3.0 mph 4.6 mph 94 % 0.00 in
08:48 35.6 °F 34.0 °F 30.12 in WSW 2.9 mph 5.8 mph 94 % 0.00 in
08:53 35.9 °F 34.3 °F 30.12 in SW 2.5 mph 4.6 mph 94 % 0.00 in
08:58 36.2 °F 34.6 °F 30.11 in SW 2.9 mph 6.9 mph 94 % 0.00 in
09:03 36.3 °F 34.7 °F 30.11 in SW 2.9 mph 5.8 mph 94 % 0.00 in
09:08 36.5 °F 34.9 °F 30.11 in WSW 2.5 mph 5.0 mph 94 % 0.00 in
09:13 36.6 °F 35.0 °F 30.11 in South 1.1 mph 3.5 mph 94 % 0.00 in
09:18 36.8 °F 35.2 °F 30.10 in SSW 3.4 mph 5.8 mph 94 % 0.00 in
09:23 37.1 °F 35.3 °F 30.10 in SW 1.9 mph 3.5 mph 93 % 0.00 in
09:28 37.3 °F 35.5 °F 30.10 in SW 1.1 mph 3.5 mph 93 % 0.00 in
09:33 37.5 °F 35.7 °F 30.11 in SW 1.2 mph 5.0 mph 93 % 0.00 in
09:38 37.8 °F 35.7 °F 30.10 in SSW 0.4 mph 3.5 mph 92 % 0.00 in
09:43 38.0 °F 35.9 °F 30.10 in SW 4.8 mph 8.1 mph 92 % 0.00 in
09:48 38.4 °F 36.0 °F 30.09 in SW 2.8 mph 5.8 mph 91 % 0.00 in
09:53 38.8 °F 36.1 °F 30.09 in SW 3.4 mph 6.9 mph 90 % 0.00 in
09:59 39.2 °F 36.2 °F 30.08 in WSW 1.8 mph 5.8 mph 89 % 0.00 in
10:04 39.7 °F 36.7 °F 30.08 in WSW 2.3 mph 5.8 mph 89 % 0.00 in
10:09 40.1 °F 36.5 °F 30.08 in SSW 4.5 mph 6.9 mph 87 % 0.00 in
10:14 40.6 °F 36.7 °F 30.08 in SW 6.2 mph 8.1 mph 86 % 0.00 in
10:19 41.1 °F 36.6 °F 30.07 in SW 5.2 mph 12.0 mph 84 % 0.00 in
10:24 41.8 °F 37.0 °F 30.07 in SW 4.2 mph 11.0 mph 83 % 0.00 in
10:29 42.4 °F 37.0 °F 30.08 in SW 5.8 mph 8.1 mph 81 % 0.00 in
10:34 43.0 °F 37.6 °F 30.07 in SSW 3.3 mph 5.8 mph 81 % 0.00 in
10:39 43.6 °F 37.2 °F 30.07 in SSW 6.2 mph 9.2 mph 78 % 0.00 in
10:44 44.1 °F 36.7 °F 30.06 in SW 3.6 mph 6.9 mph 75 % 0.00 in
10:49 44.5 °F 36.7 °F 30.06 in West 4.8 mph 7.0 mph 74 % 0.00 in
10:54 45.0 °F 36.5 °F 30.05 in West 6.4 mph 12.7 mph 72 % 0.00 in
10:59 45.6 °F 36.7 °F 30.05 in WSW 4.4 mph 11.5 mph 71 % 0.00 in
11:04 46.0 °F 36.8 °F 30.05 in SW 3.2 mph 4.6 mph 70 % 0.00 in
11:09 46.2 °F 36.6 °F 30.05 in WSW 3.7 mph 6.9 mph 69 % 0.00 in
11:14 46.5 °F 36.9 °F 30.05 in West 5.1 mph 9.2 mph 69 % 0.00 in
11:19 46.8 °F 37.5 °F 30.05 in West 4.8 mph 8.0 mph 70 % 0.00 in
11:25 47.1 °F 36.7 °F 30.05 in SW 4.1 mph 10.4 mph 67 % 0.00 in
11:30 47.4 °F 37.0 °F 30.05 in WNW 3.9 mph 5.8 mph 67 % 0.00 in
11:35 47.6 °F 37.2 °F 30.05 in West 1.6 mph 6.0 mph 67 % 0.00 in
11:40 47.9 °F 37.1 °F 30.04 in WSW 4.4 mph 5.8 mph 66 % 0.00 in
11:45 48.0 °F 36.8 °F 30.03 in West 3.6 mph 9.2 mph 65 % 0.00 in
11:50 48.1 °F 36.9 °F 30.03 in SW 4.6 mph 5.8 mph 65 % 0.00 in
11:54 48.1 °F 36.9 °F 30.03 in SW 0.9 mph 5.8 mph 65 % 0.00 in
12:00 48.2 °F 37.0 °F 30.02 in WSW 6.8 mph 11.0 mph 65 % 0.00 in
12:05 47.9 °F 37.1 °F 30.02 in West 2.9 mph 5.8 mph 66 % 0.00 in
12:10 47.9 °F 36.7 °F 30.01 in WNW 5.4 mph 9.2 mph 65 % 0.00 in
12:15 47.8 °F 36.6 °F 30.01 in WSW 5.7 mph 10.4 mph 65 % 0.00 in
12:20 47.9 °F 37.1 °F 30.00 in WSW 6.0 mph 9.2 mph 66 % 0.00 in
12:25 48.1 °F 36.9 °F 30.00 in WSW 3.9 mph 5.8 mph 65 % 0.00 in
12:30 48.4 °F 37.2 °F 30.00 in WSW 5.0 mph 8.1 mph 65 % 0.00 in
12:35 48.6 °F 37.0 °F 30.00 in WNW 4.4 mph 6.9 mph 64 % 0.00 in
12:40 48.8 °F 37.2 °F 29.99 in NW 3.3 mph 6.9 mph 64 % 0.00 in
12:45 49.0 °F 36.9 °F 29.99 in West 4.2 mph 5.8 mph 63 % 0.00 in
12:50 49.2 °F 37.1 °F 29.99 in NW 3.5 mph 4.6 mph 63 % 0.00 in
12:55 49.2 °F 37.9 °F 29.98 in NNW 2.9 mph 5.8 mph 65 % 0.00 in
13:00 49.2 °F 37.9 °F 29.98 in NNW 3.0 mph 4.6 mph 65 % 0.00 in
13:05 49.3 °F 37.6 °F 29.98 in NNW 3.4 mph 4.6 mph 64 % 0.00 in
13:10 49.5 °F 38.2 °F 29.97 in NNW 2.7 mph 4.0 mph 65 % 0.00 in
13:15 49.7 °F 38.0 °F 29.97 in WNW 2.4 mph 6.0 mph 64 % 0.00 in
13:20 50.0 °F 38.3 °F 29.96 in WSW 2.0 mph 4.6 mph 64 % 0.00 in
13:26 50.2 °F 38.1 °F 29.96 in WNW 2.0 mph 6.0 mph 63 % 0.00 in
13:31 50.5 °F 38.0 °F 29.96 in WNW 2.0 mph 7.0 mph 62 % 0.00 in
13:36 50.7 °F 37.7 °F 29.96 in WNW 3.0 mph 7.0 mph 61 % 0.00 in
13:41 50.9 °F 37.9 °F 29.96 in WNW 3.0 mph 6.0 mph 61 % 0.00 in
13:46 50.9 °F 38.3 °F 29.95 in WSW 2.0 mph 7.0 mph 62 % 0.00 in
13:51 50.7 °F 37.7 °F 29.95 in WSW 3.0 mph 9.0 mph 61 % 0.00 in
13:56 50.5 °F 38.0 °F 29.95 in WSW 3.0 mph 8.0 mph 62 % 0.00 in
14:01 50.3 °F 37.8 °F 29.95 in West 4.4 mph 5.0 mph 62 % 0.00 in
14:06 50.0 °F 37.9 °F 29.95 in West 3.0 mph 8.0 mph 63 % 0.00 in
14:11 49.8 °F 37.7 °F 29.94 in West 2.0 mph 6.0 mph 63 % 0.00 in
14:16 49.6 °F 37.9 °F 29.94 in West 3.0 mph 8.0 mph 64 % 0.00 in
14:21 49.5 °F 37.8 °F 29.94 in West 5.0 mph 7.0 mph 64 % 0.00 in
14:26 49.4 °F 37.7 °F 29.94 in WSW 2.2 mph 4.6 mph 64 % 0.00 in
14:31 49.4 °F 38.1 °F 29.94 in WSW 5.0 mph 8.0 mph 65 % 0.00 in
14:36 49.4 °F 38.1 °F 29.93 in WSW 0.7 mph 4.6 mph 65 % 0.00 in
14:41 49.4 °F 38.1 °F 29.93 in WSW 2.0 mph 6.0 mph 65 % 0.00 in
14:46 49.3 °F 38.0 °F 29.93 in WSW 3.0 mph 7.0 mph 65 % 0.00 in
14:51 49.3 °F 38.0 °F 29.93 in WSW 3.4 mph 8.1 mph 65 % 0.00 in
14:56 49.3 °F 38.0 °F 29.92 in WSW 2.0 mph 7.0 mph 65 % 0.00 in
15:01 49.4 °F 38.1 °F 29.92 in WSW 4.1 mph 9.0 mph 65 % 0.00 in
15:06 49.5 °F 38.6 °F 29.92 in SW 3.0 mph 9.0 mph 66 % 0.00 in
15:11 49.6 °F 37.9 °F 29.92 in SW 5.0 mph 9.0 mph 64 % 0.00 in
15:16 49.7 °F 38.0 °F 29.92 in SW 7.4 mph 8.1 mph 64 % 0.00 in
15:21 49.9 °F 38.2 °F 29.92 in SW 3.0 mph 8.0 mph 64 % 0.00 in
15:26 50.0 °F 38.3 °F 29.91 in SW 5.0 mph 8.0 mph 64 % 0.00 in
15:31 50.1 °F 38.4 °F 29.91 in SSE 5.6 mph 8.1 mph 64 % 0.00 in
15:36 50.1 °F 38.4 °F 29.91 in WSW 1.3 mph 5.8 mph 64 % 0.00 in
15:41 50.1 °F 38.4 °F 29.90 in SW 4.0 mph 8.1 mph 64 % 0.00 in
15:46 50.2 °F 38.5 °F 29.90 in SW 5.0 mph 9.2 mph 64 % 0.00 in
15:51 50.2 °F 38.5 °F 29.90 in SSW 3.8 mph 6.9 mph 64 % 0.00 in
15:56 50.1 °F 38.4 °F 29.89 in SSW 2.1 mph 8.1 mph 64 % 0.00 in
16:01 50.1 °F 38.8 °F 29.89 in SW 2.7 mph 4.6 mph 65 % 0.00 in
16:06 50.1 °F 38.8 °F 29.89 in South 1.4 mph 3.0 mph 65 % 0.00 in
16:11 50.1 °F 38.4 °F 29.89 in SW 5.3 mph 9.2 mph 64 % 0.00 in
16:16 50.1 °F 38.8 °F 29.88 in SW 2.4 mph 7.0 mph 65 % 0.00 in
16:21 50.0 °F 38.3 °F 29.88 in SSW 5.9 mph 9.2 mph 64 % 0.00 in
16:27 49.9 °F 38.6 °F 29.88 in SSW 2.0 mph 4.6 mph 65 % 0.00 in
16:32 49.9 °F 38.6 °F 29.88 in South 3.3 mph 3.5 mph 65 % 0.00 in
16:37 49.8 °F 38.5 °F 29.88 in SSW 6.2 mph 8.1 mph 65 % 0.00 in
16:42 49.7 °F 38.8 °F 29.88 in South 3.3 mph 6.9 mph 66 % 0.00 in
16:47 49.6 °F 38.7 °F 29.88 in SSW 4.4 mph 6.9 mph 66 % 0.00 in
16:52 49.4 °F 38.5 °F 29.88 in SSW 3.2 mph 6.9 mph 66 % 0.00 in
16:57 49.2 °F 38.3 °F 29.88 in West 1.9 mph 5.0 mph 66 % 0.00 in
17:02 49.0 °F 38.5 °F 29.88 in SW 4.4 mph 6.9 mph 67 % 0.00 in
17:07 48.7 °F 38.2 °F 29.88 in SW 3.0 mph 5.8 mph 67 % 0.00 in
17:12 48.4 °F 38.3 °F 29.88 in SW 2.6 mph 3.5 mph 68 % 0.00 in
17:17 48.2 °F 38.1 °F 29.88 in WSW 4.3 mph 7.0 mph 68 % 0.00 in
17:22 47.9 °F 37.8 °F 29.88 in SW 0.5 mph 2.3 mph 68 % 0.00 in
17:27 47.7 °F 38.0 °F 29.88 in West 1.1 mph 3.5 mph 69 % 0.00 in
17:32 47.4 °F 37.7 °F 29.88 in SW 1.2 mph 5.0 mph 69 % 0.00 in
17:37 47.0 °F 37.7 °F 29.88 in SW 2.6 mph 9.0 mph 70 % 0.00 in
17:42 46.6 °F 38.1 °F 29.88 in SSW 4.9 mph 9.0 mph 72 % 0.00 in
17:47 46.3 °F 38.1 °F 29.88 in SW 2.5 mph 4.0 mph 73 % 0.00 in
17:52 46.1 °F 37.9 °F 29.88 in SW 1.9 mph 3.5 mph 73 % 0.00 in
17:58 45.8 °F 38.0 °F 29.88 in South 1.6 mph 6.0 mph 74 % 0.00 in
18:03 45.6 °F 38.1 °F 29.88 in South 2.3 mph 6.9 mph 75 % 0.00 in
18:08 45.5 °F 38.4 °F 29.88 in South 2.9 mph 8.1 mph 76 % 0.00 in
18:13 45.4 °F 38.3 °F 29.88 in South 2.7 mph 9.0 mph 76 % 0.00 in
18:18 45.4 °F 38.6 °F 29.88 in SSW 2.7 mph 5.8 mph 77 % 0.00 in
18:23 45.4 °F 38.6 °F 29.87 in SSW 3.4 mph 6.9 mph 77 % 0.00 in
18:28 45.4 °F 38.6 °F 29.87 in South 4.1 mph 9.0 mph 77 % 0.00 in
18:33 45.5 °F 39.0 °F 29.87 in South 4.7 mph 8.1 mph 78 % 0.00 in
18:38 45.5 °F 39.0 °F 29.87 in SSW 3.2 mph 7.0 mph 78 % 0.00 in
18:43 45.6 °F 39.1 °F 29.87 in SSW 2.5 mph 5.8 mph 78 % 0.00 in
18:48 45.6 °F 39.1 °F 29.87 in SSW 2.4 mph 3.5 mph 78 % 0.00 in
18:53 45.5 °F 39.0 °F 29.86 in SSW 1.6 mph 3.5 mph 78 % 0.00 in
18:58 45.4 °F 38.9 °F 29.86 in South 1.0 mph 6.9 mph 78 % 0.00 in
19:03 45.3 °F 38.8 °F 29.86 in SW 1.0 mph 2.3 mph 78 % 0.00 in
19:08 45.1 °F 38.6 °F 29.86 in SSE 1.8 mph 6.0 mph 78 % 0.00 in
19:13 44.9 °F 38.8 °F 29.87 in SW 2.7 mph 6.9 mph 79 % 0.00 in
19:18 44.8 °F 38.7 °F 29.86 in SSW 3.6 mph 5.8 mph 79 % 0.00 in
19:23 44.6 °F 38.8 °F 29.86 in SW 0.2 mph 4.6 mph 80 % 0.00 in
19:28 44.5 °F 38.7 °F 29.86 in SSW 1.1 mph 6.9 mph 80 % 0.00 in
19:34 44.4 °F 38.9 °F 29.86 in SSW 2.9 mph 6.9 mph 81 % 0.00 in
19:39 44.3 °F 38.8 °F 29.85 in SW 2.4 mph 6.0 mph 81 % 0.00 in
19:44 44.2 °F 38.7 °F 29.85 in SW 3.6 mph 5.8 mph 81 % 0.00 in
19:49 44.1 °F 39.0 °F 29.85 in SW 3.9 mph 5.8 mph 82 % 0.00 in
19:54 44.1 °F 39.0 °F 29.85 in SW 2.6 mph 6.9 mph 82 % 0.00 in
19:59 44.0 °F 38.9 °F 29.85 in SSW 2.3 mph 5.8 mph 82 % 0.00 in
20:04 44.0 °F 39.2 °F 29.85 in SSW 3.8 mph 5.8 mph 83 % 0.00 in
20:09 44.0 °F 39.2 °F 29.85 in SW 5.0 mph 6.9 mph 83 % 0.00 in
20:14 44.0 °F 39.2 °F 29.85 in SW 3.1 mph 5.8 mph 83 % 0.00 in
20:19 43.9 °F 39.1 °F 29.85 in SSW 2.1 mph 6.9 mph 83 % 0.00 in
20:24 43.9 °F 39.1 °F 29.85 in WSW 1.0 mph 3.5 mph 83 % 0.00 in
20:29 43.8 °F 39.0 °F 29.85 in SW 3.5 mph 4.6 mph 83 % 0.00 in
20:34 43.7 °F 39.2 °F 29.85 in SSW 1.6 mph 3.5 mph 84 % 0.00 in
20:39 43.6 °F 39.1 °F 29.85 in SW 0.5 mph 3.5 mph 84 % 0.00 in
20:44 43.6 °F 39.1 °F 29.85 in SSW 2.7 mph 6.9 mph 84 % 0.00 in
20:49 43.5 °F 39.0 °F 29.85 in SW 2.9 mph 5.8 mph 84 % 0.00 in
20:54 43.5 °F 39.0 °F 29.85 in SSW 1.5 mph 3.0 mph 84 % 0.00 in
21:00 43.4 °F 38.9 °F 29.85 in SSW 0.3 mph 3.5 mph 84 % 0.00 in
21:05 43.4 °F 39.2 °F 29.85 in South 2.0 mph 3.5 mph 85 % 0.00 in
21:10 43.3 °F 39.1 °F 29.84 in WSW 4.3 mph 6.9 mph 85 % 0.00 in
21:15 43.3 °F 39.1 °F 29.85 in SSW 1.6 mph 4.0 mph 85 % 0.00 in
21:20 43.4 °F 39.2 °F 29.84 in WSW 0.8 mph 3.5 mph 85 % 0.00 in
21:25 43.4 °F 39.5 °F 29.84 in SSW 0.4 mph 6.9 mph 86 % 0.00 in
21:30 43.6 °F 39.7 °F 29.83 in SSW 3.9 mph 5.8 mph 86 % 0.00 in
21:35 43.7 °F 39.8 °F 29.84 in SSW 3.0 mph 10.4 mph 86 % 0.00 in
21:40 43.9 °F 40.0 °F 29.84 in South 2.4 mph 4.6 mph 86 % 0.00 in
21:45 44.0 °F 40.1 °F 29.83 in SW 2.8 mph 6.9 mph 86 % 0.00 in
21:50 44.2 °F 40.0 °F 29.83 in SW 1.0 mph 3.5 mph 85 % 0.00 in
21:55 44.3 °F 40.1 °F 29.83 in SW 1.5 mph 4.0 mph 85 % 0.00 in
22:00 44.4 °F 40.2 °F 29.83 in SSW 2.3 mph 3.0 mph 85 % 0.00 in
22:05 44.4 °F 40.2 °F 29.83 in SW 2.9 mph 4.6 mph 85 % 0.00 in
22:10 44.4 °F 39.9 °F 29.82 in WSW 3.9 mph 6.9 mph 84 % 0.00 in
22:15 44.4 °F 40.2 °F 29.83 in SW 2.3 mph 5.8 mph 85 % 0.00 in
22:21 44.5 °F 40.3 °F 29.82 in SW 2.0 mph 6.0 mph 85 % 0.00 in
22:26 44.6 °F 40.4 °F 29.81 in SW 1.0 mph 7.0 mph 85 % 0.00 in
22:31 44.7 °F 40.4 °F 29.82 in SW 2.0 mph 7.0 mph 85 % 0.00 in
22:36 44.8 °F 40.6 °F 29.81 in SW 1.0 mph 5.0 mph 85 % 0.00 in
22:41 44.9 °F 40.6 °F 29.81 in SSW 1.0 mph 5.0 mph 85 % 0.00 in
22:46 44.9 °F 40.7 °F 29.81 in SSW 2.1 mph 3.5 mph 85 % 0.00 in
22:51 45.0 °F 40.5 °F 29.81 in SW 5.0 mph 8.0 mph 84 % 0.00 in
22:56 45.1 °F 40.5 °F 29.80 in SW 2.0 mph 4.0 mph 84 % 0.00 in
23:01 45.1 °F 40.6 °F 29.80 in SW 0.6 mph 3.5 mph 84 % 0.00 in
23:06 45.2 °F 41.0 °F 29.80 in SW 1.0 mph 6.0 mph 85 % 0.00 in
23:11 45.2 °F 41.0 °F 29.80 in WSW 2.0 mph 7.0 mph 85 % 0.00 in
23:16 45.3 °F 41.4 °F 29.80 in SW 2.0 mph 6.0 mph 86 % 0.00 in
23:21 45.3 °F 41.4 °F 29.80 in SW 1.0 mph 5.0 mph 86 % 0.00 in
23:26 45.3 °F 41.7 °F 29.80 in SW 1.9 mph 4.6 mph 87 % 0.00 in
23:31 45.3 °F 42.0 °F 29.80 in SW 1.0 mph 4.0 mph 88 % 0.00 in
23:36 45.3 °F 42.0 °F 29.80 in SW 1.0 mph 5.0 mph 88 % 0.00 in
23:41 45.2 °F 41.9 °F 29.80 in SSW 1.0 mph 4.0 mph 88 % 0.00 in
23:46 45.2 °F 42.2 °F 29.80 in SSW 2.0 mph 4.0 mph 89 % 0.00 in
23:51 45.1 °F 42.1 °F 29.80 in SSW 1.0 mph 4.0 mph 89 % 0.00 in
23:56 45.0 °F 42.2 °F 29.79 in SSW 1.0 mph 4.0 mph 90 % 0.00 in
Crab Meadow Weather
Compliments of Weather Underground - 3 mb

Script developed by  Jim McMurry - jmcmurry@mwt.net Adapted for the template by  Wim van der Kuil - Leuven-Template.eu

Astronomy: The rings of Saturn are made of ice and rock.